sensor_id;sensor_type;location;lat;lon;timestamp;P1;durP1;ratioP1;P2;durP2;ratioP2
70270;SDS011;57680;54.292;18.598;2022-11-20T00:01:21;46.00;;;16.20;;
70270;SDS011;57680;54.292;18.598;2022-11-20T00:03:50;45.83;;;15.32;;
70270;SDS011;57680;54.292;18.598;2022-11-20T00:06:18;42.80;;;15.27;;
70270;SDS011;57680;54.292;18.598;2022-11-20T00:08:45;42.55;;;15.00;;
70270;SDS011;57680;54.292;18.598;2022-11-20T00:11:30;43.92;;;15.65;;
70270;SDS011;57680;54.292;18.598;2022-11-20T00:13:57;44.17;;;14.90;;
70270;SDS011;57680;54.292;18.598;2022-11-20T00:16:25;42.25;;;15.10;;
70270;SDS011;57680;54.292;18.598;2022-11-20T00:18:52;45.72;;;15.02;;
70270;SDS011;57680;54.292;18.598;2022-11-20T00:21:20;42.35;;;15.18;;
70270;SDS011;57680;54.292;18.598;2022-11-20T00:23:50;48.78;;;15.65;;
70270;SDS011;57680;54.292;18.598;2022-11-20T00:26:18;40.60;;;14.47;;
70270;SDS011;57680;54.292;18.598;2022-11-20T00:28:48;46.85;;;16.10;;
70270;SDS011;57680;54.292;18.598;2022-11-20T00:31:18;43.90;;;14.95;;
70270;SDS011;57680;54.292;18.598;2022-11-20T00:33:44;44.47;;;14.70;;
70270;SDS011;57680;54.292;18.598;2022-11-20T00:36:11;44.75;;;15.38;;
70270;SDS011;57680;54.292;18.598;2022-11-20T00:38:38;42.70;;;14.83;;
70270;SDS011;57680;54.292;18.598;2022-11-20T00:41:05;58.80;;;18.55;;
70270;SDS011;57680;54.292;18.598;2022-11-20T00:43:32;46.07;;;14.77;;
70270;SDS011;57680;54.292;18.598;2022-11-20T00:46:05;36.97;;;13.20;;
70270;SDS011;57680;54.292;18.598;2022-11-20T00:48:32;39.33;;;12.90;;
70270;SDS011;57680;54.292;18.598;2022-11-20T00:50:58;38.13;;;13.53;;
70270;SDS011;57680;54.292;18.598;2022-11-20T00:53:24;42.17;;;14.18;;
70270;SDS011;57680;54.292;18.598;2022-11-20T00:55:56;38.13;;;14.60;;
70270;SDS011;57680;54.292;18.598;2022-11-20T00:58:25;38.35;;;13.45;;
70270;SDS011;57680;54.292;18.598;2022-11-20T01:00:59;49.58;;;15.93;;
70270;SDS011;57680;54.292;18.598;2022-11-20T01:03:46;180.18;;;22.52;;
70270;SDS011;57680;54.292;18.598;2022-11-20T01:06:15;50.45;;;17.02;;
70270;SDS011;57680;54.292;18.598;2022-11-20T01:08:43;45.20;;;15.93;;
70270;SDS011;57680;54.292;18.598;2022-11-20T01:11:11;44.33;;;14.95;;
70270;SDS011;57680;54.292;18.598;2022-11-20T01:13:44;43.03;;;15.63;;
70270;SDS011;57680;54.292;18.598;2022-11-20T01:16:13;42.35;;;15.00;;
70270;SDS011;57680;54.292;18.598;2022-11-20T01:18:40;39.97;;;14.05;;
70270;SDS011;57680;54.292;18.598;2022-11-20T01:21:12;39.53;;;14.20;;
70270;SDS011;57680;54.292;18.598;2022-11-20T01:23:42;44.90;;;15.25;;
70270;SDS011;57680;54.292;18.598;2022-11-20T01:26:15;42.27;;;13.83;;
70270;SDS011;57680;54.292;18.598;2022-11-20T01:28:43;44.33;;;14.63;;
70270;SDS011;57680;54.292;18.598;2022-11-20T01:31:19;39.70;;;14.38;;
70270;SDS011;57680;54.292;18.598;2022-11-20T01:33:50;38.92;;;12.80;;
70270;SDS011;57680;54.292;18.598;2022-11-20T01:36:18;43.53;;;13.87;;
70270;SDS011;57680;54.292;18.598;2022-11-20T01:38:45;40.30;;;14.18;;
70270;SDS011;57680;54.292;18.598;2022-11-20T01:41:11;38.55;;;13.32;;
70270;SDS011;57680;54.292;18.598;2022-11-20T01:44:01;37.28;;;12.80;;
70270;SDS011;57680;54.292;18.598;2022-11-20T01:46:28;37.70;;;13.50;;
70270;SDS011;57680;54.292;18.598;2022-11-20T01:48:58;37.33;;;13.37;;
70270;SDS011;57680;54.292;18.598;2022-11-20T01:51:39;41.38;;;14.23;;
70270;SDS011;57680;54.292;18.598;2022-11-20T01:54:22;36.63;;;12.40;;
70270;SDS011;57680;54.292;18.598;2022-11-20T01:56:51;37.22;;;12.95;;
70270;SDS011;57680;54.292;18.598;2022-11-20T01:59:20;41.22;;;13.93;;
70270;SDS011;57680;54.292;18.598;2022-11-20T02:01:49;35.65;;;12.57;;
70270;SDS011;57680;54.292;18.598;2022-11-20T02:04:14;37.90;;;13.70;;
70270;SDS011;57680;54.292;18.598;2022-11-20T02:06:42;34.63;;;12.57;;
70270;SDS011;57680;54.292;18.598;2022-11-20T02:09:12;37.58;;;13.27;;
70270;SDS011;57680;54.292;18.598;2022-11-20T02:11:39;35.00;;;12.48;;
70270;SDS011;57680;54.292;18.598;2022-11-20T02:14:04;34.70;;;12.87;;
70270;SDS011;57680;54.292;18.598;2022-11-20T02:16:35;37.65;;;12.77;;
70270;SDS011;57680;54.292;18.598;2022-11-20T02:19:04;38.08;;;12.45;;
70270;SDS011;57680;54.292;18.598;2022-11-20T02:21:36;36.65;;;12.43;;
70270;SDS011;57680;54.292;18.598;2022-11-20T02:24:14;37.03;;;12.20;;
70270;SDS011;57680;54.292;18.598;2022-11-20T02:29:42;38.15;;;12.23;;
70270;SDS011;57680;54.292;18.598;2022-11-20T02:34:45;33.85;;;11.90;;
70270;SDS011;57680;54.292;18.598;2022-11-20T02:37:11;37.33;;;11.90;;
70270;SDS011;57680;54.292;18.598;2022-11-20T02:39:37;34.70;;;11.33;;
70270;SDS011;57680;54.292;18.598;2022-11-20T02:42:03;33.88;;;11.70;;
70270;SDS011;57680;54.292;18.598;2022-11-20T02:44:28;34.50;;;12.23;;
70270;SDS011;57680;54.292;18.598;2022-11-20T02:46:56;35.97;;;13.68;;
70270;SDS011;57680;54.292;18.598;2022-11-20T02:49:22;42.10;;;13.43;;
70270;SDS011;57680;54.292;18.598;2022-11-20T02:51:48;36.60;;;13.15;;
70270;SDS011;57680;54.292;18.598;2022-11-20T02:54:13;35.90;;;12.40;;
70270;SDS011;57680;54.292;18.598;2022-11-20T02:56:39;39.40;;;13.43;;
70270;SDS011;57680;54.292;18.598;2022-11-20T02:59:05;35.25;;;12.48;;
70270;SDS011;57680;54.292;18.598;2022-11-20T03:01:31;36.63;;;12.38;;
70270;SDS011;57680;54.292;18.598;2022-11-20T03:03:57;37.90;;;13.27;;
70270;SDS011;57680;54.292;18.598;2022-11-20T03:06:23;37.22;;;12.88;;
70270;SDS011;57680;54.292;18.598;2022-11-20T03:08:48;40.07;;;13.40;;
70270;SDS011;57680;54.292;18.598;2022-11-20T03:11:14;39.33;;;13.15;;
70270;SDS011;57680;54.292;18.598;2022-11-20T03:13:39;34.40;;;12.73;;
70270;SDS011;57680;54.292;18.598;2022-11-20T03:16:06;36.90;;;13.52;;
70270;SDS011;57680;54.292;18.598;2022-11-20T03:18:37;38.25;;;12.75;;
70270;SDS011;57680;54.292;18.598;2022-11-20T03:21:04;40.20;;;13.57;;
70270;SDS011;57680;54.292;18.598;2022-11-20T03:23:30;39.08;;;14.13;;
70270;SDS011;57680;54.292;18.598;2022-11-20T03:26:19;35.58;;;13.38;;
70270;SDS011;57680;54.292;18.598;2022-11-20T03:28:47;36.77;;;13.40;;
70270;SDS011;57680;54.292;18.598;2022-11-20T03:31:18;40.30;;;13.93;;
70270;SDS011;57680;54.292;18.598;2022-11-20T03:33:44;37.47;;;13.50;;
70270;SDS011;57680;54.292;18.598;2022-11-20T03:36:12;39.77;;;13.30;;
70270;SDS011;57680;54.292;18.598;2022-11-20T03:38:38;37.47;;;13.07;;
70270;SDS011;57680;54.292;18.598;2022-11-20T03:41:05;580.75;;;36.17;;
70270;SDS011;57680;54.292;18.598;2022-11-20T03:43:48;66.80;;;14.82;;
70270;SDS011;57680;54.292;18.598;2022-11-20T03:46:18;40.15;;;13.90;;
70270;SDS011;57680;54.292;18.598;2022-11-20T03:48:44;40.88;;;14.20;;
70270;SDS011;57680;54.292;18.598;2022-11-20T03:51:11;36.73;;;13.03;;
70270;SDS011;57680;54.292;18.598;2022-11-20T03:53:39;43.58;;;14.10;;
70270;SDS011;57680;54.292;18.598;2022-11-20T03:56:06;41.05;;;14.52;;
70270;SDS011;57680;54.292;18.598;2022-11-20T03:58:34;38.65;;;13.93;;
70270;SDS011;57680;54.292;18.598;2022-11-20T04:20:55;37.03;;;13.00;;
70270;SDS011;57680;54.292;18.598;2022-11-20T04:23:22;46.78;;;14.45;;
70270;SDS011;57680;54.292;18.598;2022-11-20T04:25:48;42.03;;;14.65;;
70270;SDS011;57680;54.292;18.598;2022-11-20T04:28:13;43.90;;;14.67;;
70270;SDS011;57680;54.292;18.598;2022-11-20T04:30:39;43.93;;;14.80;;
70270;SDS011;57680;54.292;18.598;2022-11-20T04:33:04;43.30;;;15.02;;
70270;SDS011;57680;54.292;18.598;2022-11-20T04:35:33;40.27;;;14.97;;
70270;SDS011;57680;54.292;18.598;2022-11-20T04:37:59;40.65;;;14.13;;
70270;SDS011;57680;54.292;18.598;2022-11-20T04:40:24;37.63;;;13.13;;
70270;SDS011;57680;54.292;18.598;2022-11-20T04:42:50;42.42;;;13.77;;
70270;SDS011;57680;54.292;18.598;2022-11-20T04:45:16;41.37;;;13.87;;
70270;SDS011;57680;54.292;18.598;2022-11-20T04:47:41;46.75;;;14.63;;
70270;SDS011;57680;54.292;18.598;2022-11-20T04:50:07;44.03;;;14.85;;
70270;SDS011;57680;54.292;18.598;2022-11-20T04:52:33;38.85;;;12.98;;
70270;SDS011;57680;54.292;18.598;2022-11-20T04:54:58;46.73;;;14.63;;
70270;SDS011;57680;54.292;18.598;2022-11-20T04:57:24;44.33;;;13.43;;
70270;SDS011;57680;54.292;18.598;2022-11-20T04:59:50;40.35;;;14.93;;
70270;SDS011;57680;54.292;18.598;2022-11-20T05:02:15;49.27;;;14.40;;
70270;SDS011;57680;54.292;18.598;2022-11-20T05:04:41;45.67;;;15.87;;
70270;SDS011;57680;54.292;18.598;2022-11-20T05:07:07;45.67;;;15.10;;
70270;SDS011;57680;54.292;18.598;2022-11-20T05:09:32;50.40;;;15.43;;
70270;SDS011;57680;54.292;18.598;2022-11-20T05:11:58;227.90;;;22.33;;
70270;SDS011;57680;54.292;18.598;2022-11-20T05:14:23;45.23;;;14.87;;
70270;SDS011;57680;54.292;18.598;2022-11-20T05:16:49;47.35;;;15.27;;
70270;SDS011;57680;54.292;18.598;2022-11-20T05:19:14;48.65;;;14.70;;
70270;SDS011;57680;54.292;18.598;2022-11-20T05:21:40;42.43;;;13.37;;
70270;SDS011;57680;54.292;18.598;2022-11-20T05:24:06;45.08;;;14.48;;
70270;SDS011;57680;54.292;18.598;2022-11-20T05:26:32;43.15;;;13.68;;
70270;SDS011;57680;54.292;18.598;2022-11-20T05:28:57;40.30;;;13.43;;
70270;SDS011;57680;54.292;18.598;2022-11-20T05:31:24;46.00;;;14.90;;
70270;SDS011;57680;54.292;18.598;2022-11-20T05:33:50;40.95;;;13.93;;
70270;SDS011;57680;54.292;18.598;2022-11-20T05:36:16;45.30;;;14.07;;
70270;SDS011;57680;54.292;18.598;2022-11-20T05:38:42;46.23;;;13.17;;
70270;SDS011;57680;54.292;18.598;2022-11-20T05:41:13;41.20;;;14.00;;
70270;SDS011;57680;54.292;18.598;2022-11-20T05:43:41;42.47;;;13.60;;
70270;SDS011;57680;54.292;18.598;2022-11-20T05:46:09;44.05;;;14.80;;
70270;SDS011;57680;54.292;18.598;2022-11-20T05:48:37;44.08;;;13.93;;
70270;SDS011;57680;54.292;18.598;2022-11-20T05:51:04;45.57;;;14.17;;
70270;SDS011;57680;54.292;18.598;2022-11-20T05:53:32;46.85;;;14.40;;
70270;SDS011;57680;54.292;18.598;2022-11-20T05:56:18;45.58;;;13.80;;
70270;SDS011;57680;54.292;18.598;2022-11-20T05:58:45;40.55;;;12.57;;
70270;SDS011;57680;54.292;18.598;2022-11-20T06:03:42;51.03;;;14.20;;
70270;SDS011;57680;54.292;18.598;2022-11-20T06:06:11;42.40;;;13.55;;
70270;SDS011;57680;54.292;18.598;2022-11-20T06:08:37;46.30;;;13.60;;
70270;SDS011;57680;54.292;18.598;2022-11-20T06:11:06;49.83;;;13.68;;
70270;SDS011;57680;54.292;18.598;2022-11-20T06:13:34;42.90;;;13.37;;
70270;SDS011;57680;54.292;18.598;2022-11-20T06:16:00;44.47;;;13.30;;
70270;SDS011;57680;54.292;18.598;2022-11-20T06:18:26;47.50;;;14.20;;
70270;SDS011;57680;54.292;18.598;2022-11-20T06:21:00;45.28;;;13.98;;
70270;SDS011;57680;54.292;18.598;2022-11-20T06:23:36;43.08;;;13.38;;
70270;SDS011;57680;54.292;18.598;2022-11-20T06:26:12;35.80;;;11.93;;
70270;SDS011;57680;54.292;18.598;2022-11-20T06:28:39;46.85;;;14.68;;
70270;SDS011;57680;54.292;18.598;2022-11-20T06:31:05;47.90;;;14.20;;
70270;SDS011;57680;54.292;18.598;2022-11-20T06:33:32;43.88;;;13.20;;
70270;SDS011;57680;54.292;18.598;2022-11-20T06:35:58;49.45;;;14.45;;
70270;SDS011;57680;54.292;18.598;2022-11-20T06:38:25;45.58;;;14.30;;
70270;SDS011;57680;54.292;18.598;2022-11-20T06:40:51;44.40;;;13.15;;
70270;SDS011;57680;54.292;18.598;2022-11-20T06:43:17;47.53;;;14.33;;
70270;SDS011;57680;54.292;18.598;2022-11-20T06:45:43;45.30;;;13.57;;
70270;SDS011;57680;54.292;18.598;2022-11-20T06:48:08;44.00;;;13.67;;
70270;SDS011;57680;54.292;18.598;2022-11-20T06:50:35;46.78;;;13.63;;
70270;SDS011;57680;54.292;18.598;2022-11-20T06:53:02;48.85;;;14.73;;
70270;SDS011;57680;54.292;18.598;2022-11-20T06:55:28;47.08;;;14.13;;
70270;SDS011;57680;54.292;18.598;2022-11-20T06:57:54;50.55;;;14.50;;
70270;SDS011;57680;54.292;18.598;2022-11-20T07:00:20;44.93;;;14.13;;
70270;SDS011;57680;54.292;18.598;2022-11-20T07:02:45;45.70;;;13.40;;
70270;SDS011;57680;54.292;18.598;2022-11-20T07:05:11;46.85;;;13.75;;
70270;SDS011;57680;54.292;18.598;2022-11-20T07:07:36;48.60;;;14.43;;
70270;SDS011;57680;54.292;18.598;2022-11-20T07:10:02;49.42;;;14.57;;
70270;SDS011;57680;54.292;18.598;2022-11-20T07:12:28;46.13;;;14.30;;
70270;SDS011;57680;54.292;18.598;2022-11-20T07:14:54;44.22;;;14.13;;
70270;SDS011;57680;54.292;18.598;2022-11-20T07:17:19;50.37;;;14.03;;
70270;SDS011;57680;54.292;18.598;2022-11-20T07:19:45;50.87;;;15.43;;
70270;SDS011;57680;54.292;18.598;2022-11-20T07:22:10;46.28;;;13.93;;
70270;SDS011;57680;54.292;18.598;2022-11-20T07:24:36;49.65;;;14.73;;
70270;SDS011;57680;54.292;18.598;2022-11-20T07:27:02;53.70;;;15.93;;
70270;SDS011;57680;54.292;18.598;2022-11-20T07:29:29;52.30;;;16.48;;
70270;SDS011;57680;54.292;18.598;2022-11-20T07:31:54;51.67;;;16.67;;
70270;SDS011;57680;54.292;18.598;2022-11-20T07:34:21;56.40;;;16.27;;
70270;SDS011;57680;54.292;18.598;2022-11-20T07:36:47;51.77;;;16.63;;
70270;SDS011;57680;54.292;18.598;2022-11-20T07:39:12;54.60;;;16.90;;
70270;SDS011;57680;54.292;18.598;2022-11-20T07:41:38;53.20;;;17.13;;
70270;SDS011;57680;54.292;18.598;2022-11-20T07:44:04;57.15;;;16.60;;
70270;SDS011;57680;54.292;18.598;2022-11-20T07:46:29;55.43;;;16.30;;
70270;SDS011;57680;54.292;18.598;2022-11-20T07:48:55;57.78;;;17.80;;
70270;SDS011;57680;54.292;18.598;2022-11-20T07:51:21;199.97;;;22.60;;
70270;SDS011;57680;54.292;18.598;2022-11-20T07:53:47;57.88;;;17.58;;
70270;SDS011;57680;54.292;18.598;2022-11-20T07:56:12;57.43;;;16.30;;
70270;SDS011;57680;54.292;18.598;2022-11-20T07:58:39;56.65;;;17.08;;
70270;SDS011;57680;54.292;18.598;2022-11-20T08:01:05;52.35;;;15.60;;
70270;SDS011;57680;54.292;18.598;2022-11-20T08:03:32;58.45;;;17.55;;
70270;SDS011;57680;54.292;18.598;2022-11-20T08:05:58;56.95;;;17.75;;
70270;SDS011;57680;54.292;18.598;2022-11-20T08:08:25;44.40;;;13.93;;
70270;SDS011;57680;54.292;18.598;2022-11-20T08:10:51;49.80;;;14.88;;
70270;SDS011;57680;54.292;18.598;2022-11-20T08:16:33;51.27;;;15.60;;
70270;SDS011;57680;54.292;18.598;2022-11-20T08:18:59;52.05;;;14.60;;
70270;SDS011;57680;54.292;18.598;2022-11-20T08:21:25;47.33;;;14.37;;
70270;SDS011;57680;54.292;18.598;2022-11-20T08:23:50;44.67;;;14.25;;
70270;SDS011;57680;54.292;18.598;2022-11-20T08:26:16;46.97;;;14.67;;
70270;SDS011;57680;54.292;18.598;2022-11-20T08:28:42;45.80;;;15.40;;
70270;SDS011;57680;54.292;18.598;2022-11-20T08:31:08;59.33;;;16.73;;
70270;SDS011;57680;54.292;18.598;2022-11-20T08:33:34;58.78;;;17.13;;
70270;SDS011;57680;54.292;18.598;2022-11-20T08:36:00;53.30;;;16.77;;
70270;SDS011;57680;54.292;18.598;2022-11-20T08:38:27;60.50;;;20.70;;
70270;SDS011;57680;54.292;18.598;2022-11-20T08:40:59;62.43;;;23.47;;
70270;SDS011;57680;54.292;18.598;2022-11-20T08:43:45;58.00;;;18.85;;
70270;SDS011;57680;54.292;18.598;2022-11-20T08:46:11;52.00;;;16.08;;
70270;SDS011;57680;54.292;18.598;2022-11-20T08:48:37;51.38;;;17.65;;
70270;SDS011;57680;54.292;18.598;2022-11-20T08:51:03;59.00;;;19.30;;
70270;SDS011;57680;54.292;18.598;2022-11-20T08:53:28;55.00;;;16.80;;
70270;SDS011;57680;54.292;18.598;2022-11-20T08:55:54;51.63;;;16.57;;
70270;SDS011;57680;54.292;18.598;2022-11-20T08:58:19;52.05;;;16.45;;
70270;SDS011;57680;54.292;18.598;2022-11-20T09:00:45;56.77;;;17.30;;
70270;SDS011;57680;54.292;18.598;2022-11-20T09:03:10;52.03;;;15.80;;
70270;SDS011;57680;54.292;18.598;2022-11-20T09:05:38;50.60;;;16.35;;
70270;SDS011;57680;54.292;18.598;2022-11-20T09:08:04;50.47;;;15.43;;
70270;SDS011;57680;54.292;18.598;2022-11-20T09:10:30;56.90;;;16.80;;
70270;SDS011;57680;54.292;18.598;2022-11-20T09:12:57;53.20;;;16.35;;
70270;SDS011;57680;54.292;18.598;2022-11-20T09:15:23;53.17;;;17.87;;
70270;SDS011;57680;54.292;18.598;2022-11-20T09:17:57;54.70;;;17.88;;
70270;SDS011;57680;54.292;18.598;2022-11-20T09:20:24;62.10;;;19.17;;
70270;SDS011;57680;54.292;18.598;2022-11-20T09:22:51;62.63;;;18.73;;
70270;SDS011;57680;54.292;18.598;2022-11-20T09:25:17;60.73;;;19.70;;
70270;SDS011;57680;54.292;18.598;2022-11-20T09:27:43;58.67;;;18.13;;
70270;SDS011;57680;54.292;18.598;2022-11-20T09:30:11;59.15;;;18.63;;
70270;SDS011;57680;54.292;18.598;2022-11-20T09:32:40;65.13;;;18.27;;
70270;SDS011;57680;54.292;18.598;2022-11-20T09:35:07;58.97;;;20.23;;
70270;SDS011;57680;54.292;18.598;2022-11-20T09:37:33;63.28;;;19.42;;
70270;SDS011;57680;54.292;18.598;2022-11-20T09:39:59;64.22;;;17.33;;
70270;SDS011;57680;54.292;18.598;2022-11-20T09:42:32;59.00;;;18.40;;
70270;SDS011;57680;54.292;18.598;2022-11-20T09:48:13;64.28;;;17.88;;
70270;SDS011;57680;54.292;18.598;2022-11-20T09:56:02;61.30;;;18.50;;
70270;SDS011;57680;54.292;18.598;2022-11-20T10:01:03;61.70;;;18.42;;
70270;SDS011;57680;54.292;18.598;2022-11-20T10:03:38;64.95;;;18.90;;
70270;SDS011;57680;54.292;18.598;2022-11-20T10:06:12;66.00;;;19.65;;
70270;SDS011;57680;54.292;18.598;2022-11-20T10:09:43;56.73;;;18.17;;
70270;SDS011;57680;54.292;18.598;2022-11-20T10:11:44;60.72;;;18.73;;
70270;SDS011;57680;54.292;18.598;2022-11-20T10:23:20;62.40;;;20.27;;
70270;SDS011;57680;54.292;18.598;2022-11-20T10:26:22;59.97;;;18.55;;
70270;SDS011;57680;54.292;18.598;2022-11-20T10:29:12;62.47;;;20.25;;
70270;SDS011;57680;54.292;18.598;2022-11-20T10:31:41;66.38;;;19.88;;
70270;SDS011;57680;54.292;18.598;2022-11-20T10:34:33;63.08;;;19.75;;
70270;SDS011;57680;54.292;18.598;2022-11-20T10:37:14;59.03;;;19.07;;
70270;SDS011;57680;54.292;18.598;2022-11-20T10:45:56;70.95;;;21.58;;
70270;SDS011;57680;54.292;18.598;2022-11-20T10:48:28;67.15;;;21.58;;
70270;SDS011;57680;54.292;18.598;2022-11-20T10:51:02;74.70;;;23.00;;
70270;SDS011;57680;54.292;18.598;2022-11-20T10:53:45;68.00;;;23.02;;
70270;SDS011;57680;54.292;18.598;2022-11-20T11:01:41;70.45;;;22.80;;
70270;SDS011;57680;54.292;18.598;2022-11-20T11:04:53;70.80;;;23.17;;
70270;SDS011;57680;54.292;18.598;2022-11-20T11:06:53;67.30;;;20.77;;
70270;SDS011;57680;54.292;18.598;2022-11-20T11:09:33;61.00;;;19.85;;
70270;SDS011;57680;54.292;18.598;2022-11-20T11:12:06;69.50;;;22.58;;
70270;SDS011;57680;54.292;18.598;2022-11-20T11:14:41;63.38;;;21.38;;
70270;SDS011;57680;54.292;18.598;2022-11-20T11:17:17;69.93;;;21.10;;
70270;SDS011;57680;54.292;18.598;2022-11-20T11:22:53;62.85;;;19.33;;
70270;SDS011;57680;54.292;18.598;2022-11-20T11:25:36;64.15;;;20.17;;
70270;SDS011;57680;54.292;18.598;2022-11-20T11:30:44;64.80;;;21.37;;
70270;SDS011;57680;54.292;18.598;2022-11-20T11:33:20;67.43;;;19.92;;
70270;SDS011;57680;54.292;18.598;2022-11-20T11:35:49;69.18;;;20.25;;
70270;SDS011;57680;54.292;18.598;2022-11-20T11:38:22;70.72;;;22.98;;
70270;SDS011;57680;54.292;18.598;2022-11-20T11:40:53;86.65;;;23.58;;
70270;SDS011;57680;54.292;18.598;2022-11-20T11:43:25;70.03;;;21.13;;
70270;SDS011;57680;54.292;18.598;2022-11-20T11:48:54;61.13;;;18.98;;
70270;SDS011;57680;54.292;18.598;2022-11-20T11:56:54;71.73;;;22.80;;
70270;SDS011;57680;54.292;18.598;2022-11-20T11:59:27;67.88;;;22.00;;
70270;SDS011;57680;54.292;18.598;2022-11-20T12:02:03;65.05;;;21.73;;
70270;SDS011;57680;54.292;18.598;2022-11-20T12:07:55;62.63;;;20.98;;
70270;SDS011;57680;54.292;18.598;2022-11-20T12:10:41;64.53;;;20.53;;
70270;SDS011;57680;54.292;18.598;2022-11-20T12:13:21;69.93;;;20.15;;
70270;SDS011;57680;54.292;18.598;2022-11-20T12:15:57;70.47;;;22.55;;
70270;SDS011;57680;54.292;18.598;2022-11-20T12:18:23;69.60;;;21.98;;
70270;SDS011;57680;54.292;18.598;2022-11-20T12:21:02;72.00;;;22.63;;
70270;SDS011;57680;54.292;18.598;2022-11-20T12:26:17;60.88;;;19.80;;
70270;SDS011;57680;54.292;18.598;2022-11-20T12:29:00;68.13;;;21.90;;
70270;SDS011;57680;54.292;18.598;2022-11-20T12:32:20;64.47;;;21.20;;
70270;SDS011;57680;54.292;18.598;2022-11-20T12:40:35;62.47;;;21.20;;
70270;SDS011;57680;54.292;18.598;2022-11-20T13:08:07;62.75;;;20.55;;
70270;SDS011;57680;54.292;18.598;2022-11-20T13:10:46;59.60;;;18.92;;
70270;SDS011;57680;54.292;18.598;2022-11-20T13:18:27;56.00;;;18.10;;
70270;SDS011;57680;54.292;18.598;2022-11-20T13:20:59;55.13;;;17.55;;
70270;SDS011;57680;54.292;18.598;2022-11-20T13:23:25;56.83;;;17.97;;
70270;SDS011;57680;54.292;18.598;2022-11-20T13:26:05;59.17;;;18.75;;
70270;SDS011;57680;54.292;18.598;2022-11-20T13:28:42;60.90;;;18.60;;
70270;SDS011;57680;54.292;18.598;2022-11-20T13:31:09;56.53;;;19.10;;
70270;SDS011;57680;54.292;18.598;2022-11-20T13:33:58;57.88;;;19.42;;
70270;SDS011;57680;54.292;18.598;2022-11-20T13:36:27;58.88;;;18.83;;
70270;SDS011;57680;54.292;18.598;2022-11-20T13:38:54;63.10;;;19.63;;
70270;SDS011;57680;54.292;18.598;2022-11-20T13:41:25;58.63;;;20.30;;
70270;SDS011;57680;54.292;18.598;2022-11-20T13:46:38;64.15;;;20.58;;
70270;SDS011;57680;54.292;18.598;2022-11-20T13:49:10;67.97;;;21.42;;
70270;SDS011;57680;54.292;18.598;2022-11-20T13:51:59;65.75;;;21.85;;
70270;SDS011;57680;54.292;18.598;2022-11-20T13:59:56;71.07;;;21.75;;
70270;SDS011;57680;54.292;18.598;2022-11-20T14:02:35;69.32;;;21.35;;
70270;SDS011;57680;54.292;18.598;2022-11-20T14:05:00;82.33;;;22.30;;
70270;SDS011;57680;54.292;18.598;2022-11-20T14:07:37;67.43;;;21.60;;
70270;SDS011;57680;54.292;18.598;2022-11-20T14:10:05;63.80;;;21.05;;
70270;SDS011;57680;54.292;18.598;2022-11-20T14:12:43;64.88;;;20.90;;
70270;SDS011;57680;54.292;18.598;2022-11-20T14:15:22;69.67;;;22.20;;
70270;SDS011;57680;54.292;18.598;2022-11-20T14:17:57;65.85;;;22.13;;
70270;SDS011;57680;54.292;18.598;2022-11-20T14:20:24;69.45;;;21.83;;
70270;SDS011;57680;54.292;18.598;2022-11-20T14:22:53;70.22;;;23.45;;
70270;SDS011;57680;54.292;18.598;2022-11-20T14:25:21;68.97;;;21.93;;
70270;SDS011;57680;54.292;18.598;2022-11-20T14:27:58;67.82;;;21.05;;
70270;SDS011;57680;54.292;18.598;2022-11-20T14:30:26;64.93;;;21.48;;
70270;SDS011;57680;54.292;18.598;2022-11-20T14:32:56;67.38;;;20.98;;
70270;SDS011;57680;54.292;18.598;2022-11-20T14:35:27;67.25;;;20.67;;
70270;SDS011;57680;54.292;18.598;2022-11-20T14:37:55;69.50;;;20.97;;
70270;SDS011;57680;54.292;18.598;2022-11-20T14:43:24;69.18;;;20.48;;
70270;SDS011;57680;54.292;18.598;2022-11-20T14:46:03;61.10;;;19.65;;
70270;SDS011;57680;54.292;18.598;2022-11-20T14:48:30;66.57;;;19.75;;
70270;SDS011;57680;54.292;18.598;2022-11-20T14:50:59;68.30;;;19.70;;
70270;SDS011;57680;54.292;18.598;2022-11-20T14:53:24;70.20;;;21.23;;
70270;SDS011;57680;54.292;18.598;2022-11-20T14:56:00;69.07;;;21.43;;
70270;SDS011;57680;54.292;18.598;2022-11-20T14:58:31;69.35;;;21.45;;
70270;SDS011;57680;54.292;18.598;2022-11-20T15:01:02;69.72;;;21.58;;
70270;SDS011;57680;54.292;18.598;2022-11-20T15:03:33;75.28;;;21.63;;
70270;SDS011;57680;54.292;18.598;2022-11-20T15:06:04;69.53;;;21.67;;
70270;SDS011;57680;54.292;18.598;2022-11-20T15:08:30;73.33;;;20.80;;
70270;SDS011;57680;54.292;18.598;2022-11-20T15:10:56;62.92;;;20.83;;
70270;SDS011;57680;54.292;18.598;2022-11-20T15:13:24;68.78;;;21.13;;
70270;SDS011;57680;54.292;18.598;2022-11-20T15:15:55;70.67;;;21.40;;
70270;SDS011;57680;54.292;18.598;2022-11-20T15:20:54;70.22;;;22.40;;
70270;SDS011;57680;54.292;18.598;2022-11-20T15:23:21;74.80;;;23.73;;
70270;SDS011;57680;54.292;18.598;2022-11-20T15:25:47;69.30;;;21.87;;
70270;SDS011;57680;54.292;18.598;2022-11-20T15:28:16;77.88;;;21.90;;
70270;SDS011;57680;54.292;18.598;2022-11-20T15:30:44;79.72;;;23.55;;
70270;SDS011;57680;54.292;18.598;2022-11-20T15:33:10;74.35;;;23.33;;
70270;SDS011;57680;54.292;18.598;2022-11-20T15:35:36;72.68;;;23.02;;
70270;SDS011;57680;54.292;18.598;2022-11-20T15:38:02;76.47;;;22.80;;
70270;SDS011;57680;54.292;18.598;2022-11-20T15:40:27;72.03;;;23.37;;
70270;SDS011;57680;54.292;18.598;2022-11-20T15:42:53;73.57;;;24.00;;
70270;SDS011;57680;54.292;18.598;2022-11-20T15:45:28;81.53;;;23.40;;
70270;SDS011;57680;54.292;18.598;2022-11-20T15:47:56;72.72;;;22.88;;
70270;SDS011;57680;54.292;18.598;2022-11-20T15:50:22;72.47;;;23.63;;
70270;SDS011;57680;54.292;18.598;2022-11-20T15:52:54;79.97;;;23.08;;
70270;SDS011;57680;54.292;18.598;2022-11-20T15:55:19;79.72;;;23.83;;
70270;SDS011;57680;54.292;18.598;2022-11-20T15:57:45;76.50;;;23.30;;
70270;SDS011;57680;54.292;18.598;2022-11-20T16:00:10;602.07;;;47.30;;
70270;SDS011;57680;54.292;18.598;2022-11-20T16:02:37;89.70;;;25.77;;
70270;SDS011;57680;54.292;18.598;2022-11-20T16:05:02;87.00;;;24.77;;
70270;SDS011;57680;54.292;18.598;2022-11-20T16:07:28;80.30;;;25.02;;
70270;SDS011;57680;54.292;18.598;2022-11-20T16:09:54;75.78;;;23.63;;
70270;SDS011;57680;54.292;18.598;2022-11-20T16:12:21;78.80;;;23.92;;
70270;SDS011;57680;54.292;18.598;2022-11-20T16:15:05;83.17;;;25.17;;
70270;SDS011;57680;54.292;18.598;2022-11-20T16:17:51;80.90;;;24.77;;
70270;SDS011;57680;54.292;18.598;2022-11-20T16:20:17;82.80;;;25.47;;
70270;SDS011;57680;54.292;18.598;2022-11-20T16:22:44;87.53;;;25.13;;
70270;SDS011;57680;54.292;18.598;2022-11-20T16:25:09;82.63;;;24.87;;
70270;SDS011;57680;54.292;18.598;2022-11-20T16:27:35;84.20;;;25.63;;
70270;SDS011;57680;54.292;18.598;2022-11-20T16:30:00;82.33;;;25.07;;
70270;SDS011;57680;54.292;18.598;2022-11-20T16:32:26;83.72;;;28.17;;
70270;SDS011;57680;54.292;18.598;2022-11-20T16:34:52;82.93;;;25.67;;